AAR weather

Aarhus Airport
Aarhus, Central Jutland, Denmark

Public forecast

Using degrees Celsius for public forecast. Weather courtesy of forecast.io.

METAR (pilot weather report)

Retrieved 2019/03/25 23:20 UTC (28 minutes ago):

EKAH 252320Z AUTO 27012KT 9999NDV NCD 04/02 Q1020

TAF (pilot weather forecast)

Retrieved 2019/03/25 18:14 UTC (6 hours ago):

TAF EKAH 251707Z 2518/2618 35010KT 9999 SCT020 BECMG 2519/2521 26006KT BECMG 2600/2602 30012KT